Time;durP1;ratioP1;P1;durP2;ratioP2;P2;SDS_P1;SDS_P2;PMS_P1;PMS_P2;Temp;Humidity;BMP_temperature;BMP_pressure;BME280_temperature;BME280_humidity;BME280_pressure;Samples;Min_cycle;Max_cycle;Signal;HPM_P1;HPM_P2
2021/08/11 00:00:46;;;;;;;13.27;6.43;;;;;;;;;;5072075;28;20028;-70
2021/08/11 00:03:12;;;;;;;18.52;6.85;;;;;;;;;;5069363;28;20059;-75
2021/08/11 00:05:41;;;;;;;18.17;7.65;;;;;;;;;;5068736;28;20051;-70
2021/08/11 00:08:07;;;;;;;20.95;7.72;;;;;;;;;;5071797;28;20685;-71
2021/08/11 00:10:33;;;;;;;19.38;7.50;;;;;;;;;;5069560;28;20032;-70
2021/08/11 00:12:59;;;;;;;18.92;7.70;;;;;;;;;;5071806;28;20514;-70
2021/08/11 00:15:25;;;;;;;23.77;7.95;;;;;;;;;;5068343;28;20111;-70
2021/08/11 00:17:51;;;;;;;20.65;7.68;;;;;;;;;;5070551;28;20058;-70
2021/08/11 00:20:17;;;;;;;21.15;7.35;;;;;;;;;;5069186;28;20031;-70
2021/08/11 00:22:44;;;;;;;17.63;7.10;;;;;;;;;;5069605;28;20058;-71
2021/08/11 00:25:10;;;;;;;25.60;8.52;;;;;;;;;;5072382;28;20097;-70
2021/08/11 00:27:36;;;;;;;22.45;7.55;;;;;;;;;;5071882;28;20038;-71
2021/08/11 00:30:02;;;;;;;21.42;7.95;;;;;;;;;;5075445;28;20028;-72
2021/08/11 00:32:29;;;;;;;21.85;7.25;;;;;;;;;;5077486;28;20025;-70
2021/08/11 00:34:55;;;;;;;18.27;7.28;;;;;;;;;;5070964;28;20024;-71
2021/08/11 00:37:21;;;;;;;19.48;7.15;;;;;;;;;;5069135;28;20552;-71
2021/08/11 00:39:47;;;;;;;14.38;6.40;;;;;;;;;;5073101;28;20164;-71
2021/08/11 00:42:13;;;;;;;21.75;7.18;;;;;;;;;;5074599;28;20028;-71
2021/08/11 00:44:39;;;;;;;28.40;7.20;;;;;;;;;;5070463;28;20040;-72
2021/08/11 00:47:06;;;;;;;20.10;7.15;;;;;;;;;;5076104;28;20038;-71
2021/08/11 00:49:33;;;;;;;19.15;6.80;;;;;;;;;;5073137;28;20286;-73
2021/08/11 00:51:59;;;;;;;17.63;7.07;;;;;;;;;;5067325;28;20024;-71
2021/08/11 00:54:25;;;;;;;18.48;7.00;;;;;;;;;;5069446;28;20033;-70
2021/08/11 00:56:52;;;;;;;17.00;6.47;;;;;;;;;;5072111;28;20028;-70
2021/08/11 00:59:19;;;;;;;15.52;5.57;;;;;;;;;;5067668;28;20165;-72
2021/08/11 01:01:48;;;;;;;25.13;5.80;;;;;;;;;;5073116;28;20031;-71
2021/08/11 01:04:17;;;;;;;15.55;5.88;;;;;;;;;;5074526;28;20433;-71
2021/08/11 01:06:43;;;;;;;24.83;6.88;;;;;;;;;;5069394;28;20024;-71
2021/08/11 01:09:12;;;;;;;17.90;6.25;;;;;;;;;;5071940;28;20790;-70
2021/08/11 01:11:38;;;;;;;22.40;6.88;;;;;;;;;;5070897;28;20035;-70
2021/08/11 01:14:05;;;;;;;19.40;5.90;;;;;;;;;;5069271;28;20119;-71
2021/08/11 01:16:31;;;;;;;16.10;6.10;;;;;;;;;;5067325;28;20461;-71
2021/08/11 01:18:57;;;;;;;19.23;6.30;;;;;;;;;;5072885;28;20040;-71
2021/08/11 01:21:34;;;;;;;19.70;6.25;;;;;;;;;;5072506;28;20020;-71
2021/08/11 01:24:13;;;;;;;16.15;5.95;;;;;;;;;;5069970;28;20388;-71
2021/08/11 01:26:39;;;;;;;14.40;6.20;;;;;;;;;;5071385;28;20013;-71
2021/08/11 01:29:12;;;;;;;17.08;6.22;;;;;;;;;;5066026;28;20074;-70
2021/08/11 01:31:47;;;;;;;13.77;5.90;;;;;;;;;;5071202;28;20469;-70
2021/08/11 01:34:32;;;;;;;21.83;6.22;;;;;;;;;;5071063;28;20077;-71
2021/08/11 01:37:04;;;;;;;18.73;5.68;;;;;;;;;;5070867;28;20036;-71
2021/08/11 01:39:33;;;;;;;21.85;6.82;;;;;;;;;;5068842;28;20028;-71
2021/08/11 01:42:25;;;;;;;18.67;5.18;;;;;;;;;;5071142;28;20021;-71
2021/08/11 01:45:04;;;;;;;16.25;5.90;;;;;;;;;;5068057;28;20479;-71
2021/08/11 01:47:33;;;;;;;22.80;6.25;;;;;;;;;;5073287;28;20027;-71
2021/08/11 01:50:00;;;;;;;11.25;5.63;;;;;;;;;;5067143;28;20403;-71
2021/08/11 01:52:26;;;;;;;15.10;5.28;;;;;;;;;;5066272;28;20099;-70
2021/08/11 01:54:52;;;;;;;16.98;6.13;;;;;;;;;;5073588;28;20028;-71
2021/08/11 01:57:19;;;;;;;22.60;5.53;;;;;;;;;;5070278;28;20055;-70
2021/08/11 01:59:46;;;;;;;18.65;5.20;;;;;;;;;;5066945;28;20157;-71
2021/08/11 02:02:13;;;;;;;21.05;5.22;;;;;;;;;;5073755;28;20035;-70
2021/08/11 02:04:40;;;;;;;17.27;6.20;;;;;;;;;;5074570;28;20171;-70
2021/08/11 02:07:06;;;;;;;19.90;5.35;;;;;;;;;;5075057;28;20028;-71
2021/08/11 02:09:33;;;;;;;16.75;5.80;;;;;;;;;;5073018;28;20036;-71
2021/08/11 02:11:59;;;;;;;16.63;5.68;;;;;;;;;;5068765;28;20028;-70
2021/08/11 02:14:25;;;;;;;21.52;5.88;;;;;;;;;;5072798;28;20024;-71
2021/08/11 02:16:51;;;;;;;16.17;6.60;;;;;;;;;;5076037;28;20047;-70
2021/08/11 02:19:18;;;;;;;19.48;7.15;;;;;;;;;;5066598;28;20085;-70
2021/08/11 02:21:44;;;;;;;17.83;6.28;;;;;;;;;;5067271;28;20075;-71
2021/08/11 02:24:12;;;;;;;17.10;6.25;;;;;;;;;;5075292;28;20033;-71
2021/08/11 02:26:45;;;;;;;20.60;6.55;;;;;;;;;;5069158;28;20104;-70
2021/08/11 02:29:30;;;;;;;14.73;6.18;;;;;;;;;;5072783;28;20039;-70
2021/08/11 02:31:59;;;;;;;15.50;5.80;;;;;;;;;;5071693;28;20078;-70
2021/08/11 02:34:38;;;;;;;22.30;6.07;;;;;;;;;;5074621;28;20540;-71
2021/08/11 02:37:10;;;;;;;24.67;6.00;;;;;;;;;;5075882;28;20516;-71
2021/08/11 02:39:40;;;;;;;10.80;5.03;;;;;;;;;;5076132;28;20620;-71
2021/08/11 02:42:08;;;;;;;15.45;6.18;;;;;;;;;;5071293;28;20024;-70
2021/08/11 02:44:37;;;;;;;20.30;6.80;;;;;;;;;;5073025;28;20031;-70
2021/08/11 02:47:04;;;;;;;19.00;6.80;;;;;;;;;;5073791;28;20031;-70
2021/08/11 02:49:32;;;;;;;22.55;6.70;;;;;;;;;;5070057;28;20415;-71
2021/08/11 02:51:59;;;;;;;16.55;6.18;;;;;;;;;;5072085;28;20379;-71
2021/08/11 02:54:25;;;;;;;17.98;6.20;;;;;;;;;;5073863;28;20036;-70
2021/08/11 02:56:52;;;;;;;16.50;6.05;;;;;;;;;;5072712;28;20032;-71
2021/08/11 02:59:19;;;;;;;13.15;6.32;;;;;;;;;;5069054;28;20032;-70
2021/08/11 03:01:45;;;;;;;14.27;6.78;;;;;;;;;;5072117;28;20028;-71
2021/08/11 03:04:12;;;;;;;17.63;6.75;;;;;;;;;;5070165;28;20100;-70
2021/08/11 03:06:39;;;;;;;16.60;6.70;;;;;;;;;;5071826;28;20024;-71
2021/08/11 03:09:05;;;;;;;13.65;6.55;;;;;;;;;;5073385;28;20041;-71
2021/08/11 03:11:33;;;;;;;15.88;6.07;;;;;;;;;;5067133;28;20060;-71
2021/08/11 03:14:00;;;;;;;13.13;5.72;;;;;;;;;;5071193;28;20054;-71
2021/08/11 03:16:26;;;;;;;14.23;6.30;;;;;;;;;;5069286;28;20028;-71
2021/08/11 03:18:53;;;;;;;10.60;6.00;;;;;;;;;;5066664;28;20450;-70
2021/08/11 03:21:20;;;;;;;13.18;5.63;;;;;;;;;;5071491;28;20012;-71
2021/08/11 03:23:46;;;;;;;10.93;5.88;;;;;;;;;;5070064;28;20029;-71
2021/08/11 03:26:12;;;;;;;13.77;5.40;;;;;;;;;;5071857;28;20025;-71
2021/08/11 03:28:38;;;;;;;12.13;5.55;;;;;;;;;;5068890;28;20032;-70
2021/08/11 03:31:05;;;;;;;16.73;5.78;;;;;;;;;;5075691;28;20110;-72
2021/08/11 03:33:31;;;;;;;13.55;5.90;;;;;;;;;;5071150;28;20028;-71
2021/08/11 03:35:57;;;;;;;17.85;6.13;;;;;;;;;;5068607;28;20024;-72
2021/08/11 03:38:23;;;;;;;15.95;5.90;;;;;;;;;;5066507;28;20021;-71
2021/08/11 03:40:49;;;;;;;8.63;4.85;;;;;;;;;;5069572;28;20036;-71
2021/08/11 03:43:15;;;;;;;15.68;5.32;;;;;;;;;;5071050;28;20031;-70
2021/08/11 03:45:42;;;;;;;13.07;5.22;;;;;;;;;;5072289;28;20032;-70
2021/08/11 03:48:09;;;;;;;10.07;5.22;;;;;;;;;;5068421;28;20036;-71
2021/08/11 03:50:35;;;;;;;17.20;5.85;;;;;;;;;;5074236;28;20141;-70
2021/08/11 03:53:01;;;;;;;13.88;5.63;;;;;;;;;;5069982;28;20031;-70
2021/08/11 03:55:36;;;;;;;19.15;6.20;;;;;;;;;;5069754;28;20042;-70
2021/08/11 03:58:03;;;;;;;14.05;5.53;;;;;;;;;;5073378;28;20031;-70
2021/08/11 04:00:29;;;;;;;9.68;5.88;;;;;;;;;;5069811;28;20078;-71
2021/08/11 04:02:55;;;;;;;11.82;5.80;;;;;;;;;;5071291;28;20503;-70
2021/08/11 04:05:21;;;;;;;11.15;5.43;;;;;;;;;;5071748;28;20020;-70
2021/08/11 04:07:47;;;;;;;15.80;5.75;;;;;;;;;;5069006;28;20131;-71
2021/08/11 04:10:13;;;;;;;14.65;6.05;;;;;;;;;;5073596;28;20115;-70
2021/08/11 04:12:39;;;;;;;14.45;5.72;;;;;;;;;;5067441;28;20111;-71
2021/08/11 04:15:07;;;;;;;12.02;5.15;;;;;;;;;;5071961;28;20047;-71
2021/08/11 04:17:33;;;;;;;11.63;5.82;;;;;;;;;;5070983;28;20040;-71
2021/08/11 04:19:59;;;;;;;9.27;5.93;;;;;;;;;;5067195;28;20376;-70
2021/08/11 04:22:25;;;;;;;14.90;6.22;;;;;;;;;;5071003;28;20028;-71
2021/08/11 04:24:51;;;;;;;10.85;6.15;;;;;;;;;;5069911;28;20048;-71
2021/08/11 04:27:18;;;;;;;15.25;5.82;;;;;;;;;;5071723;28;20035;-71
2021/08/11 04:29:44;;;;;;;13.77;6.65;;;;;;;;;;5070568;28;20048;-71
2021/08/11 04:32:10;;;;;;;11.75;5.63;;;;;;;;;;5070341;28;20027;-71
2021/08/11 04:34:36;;;;;;;15.55;6.50;;;;;;;;;;5072313;28;20825;-70
2021/08/11 04:37:02;;;;;;;7.90;5.65;;;;;;;;;;5065557;28;20085;-73
2021/08/11 04:39:29;;;;;;;8.63;5.93;;;;;;;;;;5069978;28;20115;-72
2021/08/11 04:41:55;;;;;;;15.95;5.90;;;;;;;;;;5067977;28;20068;-73
2021/08/11 04:44:24;;;;;;;13.00;5.90;;;;;;;;;;5072967;28;20060;-73
2021/08/11 04:46:52;;;;;;;15.15;6.13;;;;;;;;;;5068068;28;20055;-73
2021/08/11 04:49:26;;;;;;;18.15;6.05;;;;;;;;;;5069177;28;20122;-73
2021/08/11 04:51:52;;;;;;;16.20;6.47;;;;;;;;;;5068891;28;20055;-73
2021/08/11 04:54:19;;;;;;;11.82;6.53;;;;;;;;;;5069045;28;20033;-73
2021/08/11 04:56:45;;;;;;;12.60;6.72;;;;;;;;;;5072290;28;20043;-73
2021/08/11 04:59:13;;;;;;;10.68;6.18;;;;;;;;;;5071472;28;20131;-73
2021/08/11 05:01:40;;;;;;;17.60;6.18;;;;;;;;;;5067362;28;20032;-73
2021/08/11 05:04:07;;;;;;;15.02;6.55;;;;;;;;;;5069721;28;20024;-73
2021/08/11 05:06:36;;;;;;;16.80;6.53;;;;;;;;;;5070221;28;20243;-73
2021/08/11 05:09:03;;;;;;;16.60;6.90;;;;;;;;;;5069595;28;20467;-73
2021/08/11 05:11:29;;;;;;;16.85;6.47;;;;;;;;;;5072402;28;20023;-73
2021/08/11 05:13:55;;;;;;;13.35;6.00;;;;;;;;;;5066442;28;20079;-73
2021/08/11 05:16:22;;;;;;;19.58;6.78;;;;;;;;;;5071880;28;20024;-73
2021/08/11 05:18:48;;;;;;;10.70;6.28;;;;;;;;;;5068334;28;20048;-73
2021/08/11 05:21:14;;;;;;;10.98;6.65;;;;;;;;;;5068416;28;20023;-73
2021/08/11 05:23:40;;;;;;;13.35;6.15;;;;;;;;;;5070313;28;20023;-73
2021/08/11 05:26:06;;;;;;;11.95;6.53;;;;;;;;;;5066835;28;20097;-73
2021/08/11 05:28:32;;;;;;;18.85;7.15;;;;;;;;;;5068501;28;20289;-73
2021/08/11 05:30:58;;;;;;;15.02;7.32;;;;;;;;;;5064801;28;20446;-73
2021/08/11 05:33:24;;;;;;;17.35;6.80;;;;;;;;;;5066537;28;20476;-73
2021/08/11 05:35:51;;;;;;;17.20;6.75;;;;;;;;;;5070702;28;20032;-73
2021/08/11 05:38:17;;;;;;;17.25;7.38;;;;;;;;;;5066687;28;20035;-73
2021/08/11 05:40:43;;;;;;;17.27;6.88;;;;;;;;;;5072412;28;20020;-72
2021/08/11 05:43:09;;;;;;;14.07;6.57;;;;;;;;;;5072202;28;20348;-72
2021/08/11 05:45:35;;;;;;;19.33;6.70;;;;;;;;;;5074350;28;20056;-72
2021/08/11 05:48:01;;;;;;;15.68;6.28;;;;;;;;;;5068924;28;20024;-72
2021/08/11 05:50:28;;;;;;;11.77;6.53;;;;;;;;;;5072405;28;20313;-71
2021/08/11 05:52:54;;;;;;;14.63;6.40;;;;;;;;;;5073043;28;20026;-71
2021/08/11 05:55:20;;;;;;;12.70;6.10;;;;;;;;;;5068936;28;20028;-72
2021/08/11 05:57:46;;;;;;;16.55;7.05;;;;;;;;;;5071661;28;20111;-71
2021/08/11 06:00:12;;;;;;;15.77;6.78;;;;;;;;;;5072641;28;20027;-71
2021/08/11 06:02:42;;;;;;;15.75;6.57;;;;;;;;;;5072215;28;20103;-71
2021/08/11 06:05:09;;;;;;;12.10;6.20;;;;;;;;;;5074503;28;20400;-71
2021/08/11 06:07:35;;;;;;;12.80;6.03;;;;;;;;;;5067293;28;20500;-71
2021/08/11 06:10:01;;;;;;;11.77;5.65;;;;;;;;;;5073686;28;20067;-72
2021/08/11 06:12:27;;;;;;;7.75;5.18;;;;;;;;;;5073133;28;20031;-71
2021/08/11 06:14:53;;;;;;;13.55;5.28;;;;;;;;;;5065106;28;20023;-72
2021/08/11 06:17:19;;;;;;;9.82;5.35;;;;;;;;;;5066919;28;20008;-71
2021/08/11 06:19:47;;;;;;;9.27;5.20;;;;;;;;;;5067008;28;20701;-71
2021/08/11 06:22:14;;;;;;;10.73;5.20;;;;;;;;;;5066369;28;20476;-72
2021/08/11 06:24:40;;;;;;;12.75;5.35;;;;;;;;;;5066291;28;20032;-71
2021/08/11 06:27:06;;;;;;;11.60;6.38;;;;;;;;;;5065343;28;20027;-71
2021/08/11 06:29:32;;;;;;;15.32;5.68;;;;;;;;;;5069153;28;20028;-72
2021/08/11 06:31:58;;;;;;;12.95;6.03;;;;;;;;;;5064084;28;20035;-72
2021/08/11 06:34:25;;;;;;;13.65;6.28;;;;;;;;;;5071455;28;20035;-71
2021/08/11 06:36:52;;;;;;;12.27;5.57;;;;;;;;;;5071001;28;20025;-72
2021/08/11 06:39:18;;;;;;;13.45;6.07;;;;;;;;;;5066159;28;20037;-72
2021/08/11 06:41:44;;;;;;;11.98;5.68;;;;;;;;;;5071629;28;20032;-72
2021/08/11 06:44:10;;;;;;;12.93;5.50;;;;;;;;;;5066952;28;20100;-72
2021/08/11 06:46:36;;;;;;;8.45;5.28;;;;;;;;;;5070942;28;20024;-72
2021/08/11 06:49:03;;;;;;;17.48;6.47;;;;;;;;;;5070183;28;20596;-72
2021/08/11 06:51:30;;;;;;;12.25;5.20;;;;;;;;;;5078519;28;20115;-72
2021/08/11 06:53:56;;;;;;;12.57;5.22;;;;;;;;;;5073552;28;20024;-72
2021/08/11 06:56:22;;;;;;;12.68;5.68;;;;;;;;;;5071381;28;20063;-72
2021/08/11 06:58:48;;;;;;;15.75;6.25;;;;;;;;;;5074225;28;20013;-72
2021/08/11 07:01:14;;;;;;;18.10;6.97;;;;;;;;;;5074177;28;20184;-72
2021/08/11 07:03:40;;;;;;;21.70;7.63;;;;;;;;;;5075267;28;20017;-72
2021/08/11 07:06:07;;;;;;;16.73;6.38;;;;;;;;;;5069566;28;20023;-72
2021/08/11 07:08:33;;;;;;;18.35;5.80;;;;;;;;;;5065408;28;20144;-72
2021/08/11 07:10:59;;;;;;;16.65;5.80;;;;;;;;;;5067933;28;20025;-72
2021/08/11 07:13:25;;;;;;;18.08;6.20;;;;;;;;;;5068818;28;20028;-72
2021/08/11 07:15:51;;;;;;;17.55;6.38;;;;;;;;;;5070522;28;20027;-72
2021/08/11 07:18:20;;;;;;;10.90;5.25;;;;;;;;;;5070932;28;20531;-72
2021/08/11 07:20:46;;;;;;;16.00;5.95;;;;;;;;;;5067243;28;20063;-72
2021/08/11 07:23:13;;;;;;;13.32;6.03;;;;;;;;;;5065564;28;20020;-72
2021/08/11 07:25:39;;;;;;;17.77;6.53;;;;;;;;;;5063495;28;20095;-72
2021/08/11 07:28:05;;;;;;;9.00;4.95;;;;;;;;;;5069695;28;20537;-72
2021/08/11 07:30:31;;;;;;;17.00;5.78;;;;;;;;;;5074596;28;20142;-72
2021/08/11 07:32:58;;;;;;;12.00;5.13;;;;;;;;;;5068222;28;20024;-72
2021/08/11 07:35:24;;;;;;;13.52;5.97;;;;;;;;;;5068672;28;20025;-72
2021/08/11 07:37:51;;;;;;;11.73;5.25;;;;;;;;;;5072220;28;20016;-72
2021/08/11 07:40:20;;;;;;;10.32;5.43;;;;;;;;;;5070334;28;20222;-72
2021/08/11 07:42:46;;;;;;;11.88;5.47;;;;;;;;;;5069119;28;20023;-72
2021/08/11 07:45:14;;;;;;;10.30;5.50;;;;;;;;;;5067743;28;20029;-72
2021/08/11 07:47:42;;;;;;;15.82;6.40;;;;;;;;;;5069335;28;20052;-72
2021/08/11 07:50:09;;;;;;;13.65;6.47;;;;;;;;;;5070768;28;20025;-72
2021/08/11 07:52:35;;;;;;;15.30;7.18;;;;;;;;;;5067484;28;20031;-72
2021/08/11 07:55:01;;;;;;;13.68;6.03;;;;;;;;;;5070641;28;20035;-72
2021/08/11 07:57:27;;;;;;;17.42;6.25;;;;;;;;;;5068372;28;20024;-72
2021/08/11 07:59:53;;;;;;;17.10;6.43;;;;;;;;;;5073014;28;20035;-72
2021/08/11 08:02:20;;;;;;;14.73;6.65;;;;;;;;;;5071401;28;20029;-72
2021/08/11 08:04:46;;;;;;;15.23;6.45;;;;;;;;;;5068276;28;20059;-72
2021/08/11 08:07:12;;;;;;;12.25;5.72;;;;;;;;;;5070200;28;20022;-72
2021/08/11 08:09:38;;;;;;;20.80;5.80;;;;;;;;;;5068650;28;20036;-72
2021/08/11 08:12:04;;;;;;;14.05;6.15;;;;;;;;;;5071232;28;20045;-71
2021/08/11 08:14:31;;;;;;;13.85;6.72;;;;;;;;;;5066791;28;20082;-73
2021/08/11 08:16:57;;;;;;;14.43;6.50;;;;;;;;;;5070768;28;20020;-72
2021/08/11 08:19:23;;;;;;;21.65;6.30;;;;;;;;;;5069665;28;20044;-72
2021/08/11 08:21:49;;;;;;;15.30;5.68;;;;;;;;;;5070905;28;20768;-72
2021/08/11 08:24:15;;;;;;;16.85;6.25;;;;;;;;;;5069974;28;20582;-72
2021/08/11 08:26:43;;;;;;;14.38;6.00;;;;;;;;;;5070344;28;20024;-72
2021/08/11 08:29:09;;;;;;;12.27;6.20;;;;;;;;;;5069223;28;20050;-72
2021/08/11 08:31:35;;;;;;;19.00;8.05;;;;;;;;;;5067158;28;20074;-72
2021/08/11 08:34:01;;;;;;;16.80;7.63;;;;;;;;;;5071264;28;20031;-72
2021/08/11 08:36:27;;;;;;;19.23;9.88;;;;;;;;;;5073042;28;20400;-72
2021/08/11 08:38:54;;;;;;;18.58;8.88;;;;;;;;;;5067728;28;20029;-72
2021/08/11 08:41:20;;;;;;;12.15;6.60;;;;;;;;;;5072216;28;20025;-72
2021/08/11 08:43:46;;;;;;;15.02;6.22;;;;;;;;;;5068220;28;20537;-72
2021/08/11 08:46:15;;;;;;;20.63;6.05;;;;;;;;;;5072734;28;20117;-72
2021/08/11 08:48:41;;;;;;;14.27;6.28;;;;;;;;;;5069553;28;20028;-72
2021/08/11 08:51:10;;;;;;;16.98;6.47;;;;;;;;;;5063850;28;20593;-72
2021/08/11 08:53:37;;;;;;;13.10;6.10;;;;;;;;;;5071671;28;20818;-72
2021/08/11 08:56:04;;;;;;;14.05;6.70;;;;;;;;;;5068412;28;20032;-72
2021/08/11 08:58:30;;;;;;;9.20;6.40;;;;;;;;;;5070716;28;20013;-72
2021/08/11 09:00:56;;;;;;;16.83;6.82;;;;;;;;;;5068460;28;20487;-72
2021/08/11 09:03:22;;;;;;;14.27;6.80;;;;;;;;;;5068013;28;20043;-72
2021/08/11 09:05:48;;;;;;;17.70;6.75;;;;;;;;;;5069824;28;20032;-72
2021/08/11 09:08:14;;;;;;;11.27;6.32;;;;;;;;;;5068847;28;20071;-72
2021/08/11 09:10:41;;;;;;;15.30;6.50;;;;;;;;;;5068705;28;20034;-72
2021/08/11 09:13:15;;;;;;;13.27;6.47;;;;;;;;;;5069119;28;20032;-72
2021/08/11 09:15:45;;;;;;;16.30;7.28;;;;;;;;;;5067742;28;20129;-72
2021/08/11 09:18:13;;;;;;;15.40;5.82;;;;;;;;;;5071800;28;20110;-72
2021/08/11 09:20:39;;;;;;;16.02;6.03;;;;;;;;;;5069784;28;20064;-72
2021/08/11 09:23:07;;;;;;;13.77;6.40;;;;;;;;;;5065568;28;20033;-72
2021/08/11 09:25:33;;;;;;;11.27;5.60;;;;;;;;;;5068544;28;20028;-72
2021/08/11 09:27:59;;;;;;;15.45;6.07;;;;;;;;;;5070370;28;20024;-72
2021/08/11 09:30:26;;;;;;;10.48;5.80;;;;;;;;;;5068727;28;20115;-72
2021/08/11 09:32:52;;;;;;;12.88;6.30;;;;;;;;;;5068412;28;20021;-72
2021/08/11 09:35:20;;;;;;;17.58;6.65;;;;;;;;;;5069597;28;20024;-72
2021/08/11 09:37:48;;;;;;;14.35;5.80;;;;;;;;;;5066474;28;20027;-72
2021/08/11 09:40:16;;;;;;;13.70;6.18;;;;;;;;;;5065366;28;20020;-71
2021/08/11 09:42:43;;;;;;;14.13;6.13;;;;;;;;;;5071055;28;20016;-71
2021/08/11 09:45:10;;;;;;;14.20;6.22;;;;;;;;;;5067691;28;20412;-73
2021/08/11 09:47:53;;;;;;;20.02;6.45;;;;;;;;;;5068181;28;20031;-71
2021/08/11 09:50:19;;;;;;;12.73;5.43;;;;;;;;;;5068901;28;20024;-71
2021/08/11 09:52:49;;;;;;;12.43;5.80;;;;;;;;;;5069548;28;20032;-71
2021/08/11 09:55:16;;;;;;;14.40;5.47;;;;;;;;;;5066161;28;20432;-71
2021/08/11 09:57:42;;;;;;;16.95;6.18;;;;;;;;;;5066858;28;20036;-70
2021/08/11 10:00:13;;;;;;;12.73;5.70;;;;;;;;;;5067445;28;20047;-72
2021/08/11 10:02:39;;;;;;;16.20;6.10;;;;;;;;;;5067936;28;20028;-71
2021/08/11 10:05:06;;;;;;;13.48;5.90;;;;;;;;;;5068892;28;20781;-71
2021/08/11 10:07:32;;;;;;;20.23;6.22;;;;;;;;;;5069264;28;20020;-70
2021/08/11 10:10:02;;;;;;;18.20;6.40;;;;;;;;;;5065696;28;20040;-71
2021/08/11 10:12:29;;;;;;;12.70;6.20;;;;;;;;;;5069362;28;20012;-70
2021/08/11 10:14:57;;;;;;;20.75;5.80;;;;;;;;;;5067692;28;20035;-71
2021/08/11 10:17:24;;;;;;;17.58;5.55;;;;;;;;;;5069550;28;20028;-71
2021/08/11 10:19:51;;;;;;;10.82;5.18;;;;;;;;;;5067568;28;20385;-70
2021/08/11 10:22:21;;;;;;;14.68;7.00;;;;;;;;;;5069262;28;20111;-71
2021/08/11 10:24:52;;;;;;;11.75;7.00;;;;;;;;;;5069054;28;20025;-71
2021/08/11 10:27:19;;;;;;;10.60;7.05;;;;;;;;;;5070315;28;20115;-71
2021/08/11 10:29:48;;;;;;;9.02;6.90;;;;;;;;;;5065000;28;20594;-71
2021/08/11 10:32:15;;;;;;;11.82;6.50;;;;;;;;;;5068776;28;20525;-71
2021/08/11 10:34:41;;;;;;;13.38;6.47;;;;;;;;;;5070562;28;20383;-71
2021/08/11 10:37:07;;;;;;;13.52;6.30;;;;;;;;;;5069248;28;20017;-71
2021/08/11 10:39:34;;;;;;;12.52;6.07;;;;;;;;;;5067319;28;20081;-71
2021/08/11 10:42:08;;;;;;;18.38;6.03;;;;;;;;;;5065152;28;20031;-71
2021/08/11 10:44:34;;;;;;;11.23;6.20;;;;;;;;;;5068375;28;20175;-70
2021/08/11 10:47:01;;;;;;;13.55;5.97;;;;;;;;;;5067138;28;20847;-71
2021/08/11 10:49:28;;;;;;;16.92;6.30;;;;;;;;;;5065128;28;20396;-71
2021/08/11 10:51:59;;;;;;;17.50;5.47;;;;;;;;;;5069038;28;20497;-71
2021/08/11 10:54:26;;;;;;;8.57;5.28;;;;;;;;;;5070048;28;20024;-70
2021/08/11 10:56:56;;;;;;;10.85;5.07;;;;;;;;;;5074862;28;20107;-71
2021/08/11 10:59:22;;;;;;;9.23;5.20;;;;;;;;;;5068319;28;20153;-71
2021/08/11 11:01:51;;;;;;;11.00;5.55;;;;;;;;;;5072581;28;20566;-70
2021/08/11 11:04:36;;;;;;;14.13;5.70;;;;;;;;;;5071176;28;20025;-71
2021/08/11 11:07:08;;;;;;;13.63;5.57;;;;;;;;;;5069339;28;20058;-71
2021/08/11 11:09:34;;;;;;;12.65;5.35;;;;;;;;;;5070726;28;20572;-70
2021/08/11 11:12:20;;;;;;;15.15;6.00;;;;;;;;;;5074619;28;20515;-70
2021/08/11 11:14:57;;;;;;;12.70;5.63;;;;;;;;;;5071755;28;20491;-71
2021/08/11 11:17:26;;;;;;;17.95;6.03;;;;;;;;;;5069385;28;20052;-70
2021/08/11 11:20:08;;;;;;;13.98;5.57;;;;;;;;;;5068308;28;20067;-70
2021/08/11 11:22:35;;;;;;;10.15;5.35;;;;;;;;;;5072235;28;20456;-70
2021/08/11 11:25:01;;;;;;;13.35;5.63;;;;;;;;;;5070662;28;20028;-70
2021/08/11 11:27:39;;;;;;;12.77;6.35;;;;;;;;;;5072032;28;20387;-70
2021/08/11 11:30:07;;;;;;;10.48;5.15;;;;;;;;;;5076371;28;20055;-71
2021/08/11 11:32:33;;;;;;;12.70;5.68;;;;;;;;;;5067745;28;20158;-71
2021/08/11 11:35:18;;;;;;;12.30;5.47;;;;;;;;;;5068054;28;20029;-71
2021/08/11 11:37:45;;;;;;;20.63;6.22;;;;;;;;;;5074142;28;20035;-71
2021/08/11 11:40:12;;;;;;;11.82;5.85;;;;;;;;;;5068369;28;20541;-70
2021/08/11 11:42:38;;;;;;;7.03;5.00;;;;;;;;;;5071465;28;20020;-71
2021/08/11 11:45:06;;;;;;;13.85;5.45;;;;;;;;;;5072251;28;20487;-70
2021/08/11 11:47:39;;;;;;;13.63;6.43;;;;;;;;;;5068519;28;20093;-71
2021/08/11 11:50:21;;;;;;;13.27;6.95;;;;;;;;;;5073198;28;20127;-70
2021/08/11 11:52:51;;;;;;;11.30;8.23;;;;;;;;;;5071002;28;20028;-70
2021/08/11 11:55:29;;;;;;;9.85;7.05;;;;;;;;;;5069484;28;20016;-70
2021/08/11 11:57:56;;;;;;;9.10;7.75;;;;;;;;;;5072306;28;20707;-70
2021/08/11 12:00:22;;;;;;;14.13;8.00;;;;;;;;;;5069985;28;20056;-70
2021/08/11 12:02:52;;;;;;;8.60;7.15;;;;;;;;;;5070906;28;20025;-70
2021/08/11 12:05:18;;;;;;;11.18;8.10;;;;;;;;;;5070166;28;20027;-70
2021/08/11 12:07:44;;;;;;;12.68;7.50;;;;;;;;;;5067073;28;20024;-70
2021/08/11 12:10:21;;;;;;;14.48;8.52;;;;;;;;;;5073049;28;20047;-70
2021/08/11 12:12:55;;;;;;;14.27;8.88;;;;;;;;;;5067660;28;20028;-70
2021/08/11 12:15:21;;;;;;;14.75;8.45;;;;;;;;;;5069887;28;20024;-71
2021/08/11 12:17:48;;;;;;;17.65;7.93;;;;;;;;;;5070251;28;20051;-72
2021/08/11 12:20:26;;;;;;;10.82;7.22;;;;;;;;;;5071263;28;20105;-70
2021/08/11 12:22:52;;;;;;;9.88;7.55;;;;;;;;;;5071658;28;20618;-72
2021/08/11 12:25:26;;;;;;;12.55;7.65;;;;;;;;;;5072503;28;20036;-71
2021/08/11 12:28:12;;;;;;;10.75;7.53;;;;;;;;;;5070412;28;20487;-71
2021/08/11 12:30:42;;;;;;;18.50;8.23;;;;;;;;;;5066889;28;20043;-72
2021/08/11 12:33:10;;;;;;;12.52;7.45;;;;;;;;;;5070057;28;20040;-72
2021/08/11 12:35:40;;;;;;;14.57;7.43;;;;;;;;;;5067386;28;20029;-72
2021/08/11 12:38:07;;;;;;;14.88;7.60;;;;;;;;;;5071250;28;20095;-71
2021/08/11 12:40:35;;;;;;;12.57;6.90;;;;;;;;;;5067910;28;20048;-71
2021/08/11 12:43:02;;;;;;;11.10;5.72;;;;;;;;;;5067769;28;20388;-72
2021/08/11 12:45:45;;;;;;;11.07;5.75;;;;;;;;;;5067058;28;20028;-72
2021/08/11 12:48:23;;;;;;;12.35;6.50;;;;;;;;;;5067837;28;20024;-71
2021/08/11 12:50:50;;;;;;;12.77;6.53;;;;;;;;;;5067826;28;20178;-72
2021/08/11 12:53:23;;;;;;;11.00;5.93;;;;;;;;;;5069339;28;20148;-72
2021/08/11 12:55:49;;;;;;;11.73;6.00;;;;;;;;;;5066527;28;20420;-72
2021/08/11 12:58:15;;;;;;;16.60;6.15;;;;;;;;;;5068739;28;20023;-72
2021/08/11 13:00:42;;;;;;;10.93;5.70;;;;;;;;;;5069319;28;20020;-71
2021/08/11 13:03:13;;;;;;;14.55;5.95;;;;;;;;;;5073198;28;20078;-72
2021/08/11 13:05:52;;;;;;;14.43;6.47;;;;;;;;;;5068398;28;20104;-72
2021/08/11 13:08:19;;;;;;;12.35;6.50;;;;;;;;;;5069807;28;20071;-72
2021/08/11 13:10:56;;;;;;;16.63;6.60;;;;;;;;;;5067649;28;20021;-72
2021/08/11 13:13:22;;;;;;;12.50;6.57;;;;;;;;;;5066575;28;20367;-71
2021/08/11 13:15:49;;;;;;;12.30;6.60;;;;;;;;;;5070795;28;20024;-72
2021/08/11 13:18:24;;;;;;;13.80;6.72;;;;;;;;;;5065319;28;20044;-71
2021/08/11 13:20:50;;;;;;;11.15;6.07;;;;;;;;;;5068084;28;20024;-72
2021/08/11 13:23:17;;;;;;;7.40;5.15;;;;;;;;;;5071788;28;20070;-72
2021/08/11 13:25:47;;;;;;;9.85;6.28;;;;;;;;;;5071230;28;20547;-71
2021/08/11 13:28:13;;;;;;;18.23;6.80;;;;;;;;;;5067698;28;20059;-71
2021/08/11 13:30:39;;;;;;;9.68;5.63;;;;;;;;;;5068895;28;20422;-71
2021/08/11 13:33:06;;;;;;;11.00;5.80;;;;;;;;;;5071314;28;20637;-72
2021/08/11 13:35:33;;;;;;;10.50;6.63;;;;;;;;;;5066449;28;20449;-72
2021/08/11 13:38:00;;;;;;;11.85;6.55;;;;;;;;;;5068169;28;20554;-71
2021/08/11 13:40:27;;;;;;;13.95;6.70;;;;;;;;;;5067894;28;20036;-72
2021/08/11 13:42:53;;;;;;;9.13;6.50;;;;;;;;;;5067997;28;20027;-65
2021/08/11 13:45:19;;;;;;;9.85;6.85;;;;;;;;;;5073488;28;20117;-71
2021/08/11 13:47:46;;;;;;;11.05;6.75;;;;;;;;;;5067445;28;20024;-71
2021/08/11 13:50:13;;;;;;;13.85;7.00;;;;;;;;;;5067552;28;20027;-72
2021/08/11 13:52:39;;;;;;;11.70;7.22;;;;;;;;;;5068332;28;20648;-72
2021/08/11 13:55:06;;;;;;;18.58;6.85;;;;;;;;;;5064799;28;20028;-71
2021/08/11 13:57:35;;;;;;;11.20;5.90;;;;;;;;;;5062676;28;20027;-71
2021/08/11 14:00:01;;;;;;;9.13;5.60;;;;;;;;;;5063538;28;20065;-71
2021/08/11 14:02:27;;;;;;;12.63;6.07;;;;;;;;;;5059439;28;20013;-71
2021/08/11 14:04:53;;;;;;;13.02;6.25;;;;;;;;;;5062000;28;20052;-71
2021/08/11 14:07:20;;;;;;;12.15;6.50;;;;;;;;;;5064311;28;20085;-72
2021/08/11 14:09:46;;;;;;;14.82;6.88;;;;;;;;;;5063159;28;20603;-71
2021/08/11 14:12:13;;;;;;;10.57;6.28;;;;;;;;;;5065479;28;20020;-71
2021/08/11 14:14:39;;;;;;;13.00;6.55;;;;;;;;;;5064562;28;20425;-72
2021/08/11 14:17:06;;;;;;;10.82;6.03;;;;;;;;;;5061939;28;20020;-72
2021/08/11 14:19:33;;;;;;;12.40;6.35;;;;;;;;;;5062846;28;20033;-72
2021/08/11 14:21:59;;;;;;;10.07;6.18;;;;;;;;;;5061731;28;20028;-72
2021/08/11 14:24:25;;;;;;;15.95;6.28;;;;;;;;;;5060174;28;20437;-72
2021/08/11 14:26:52;;;;;;;13.43;5.80;;;;;;;;;;5061108;28;20025;-71
2021/08/11 14:29:19;;;;;;;12.57;6.80;;;;;;;;;;5061981;28;20040;-72
2021/08/11 14:31:45;;;;;;;15.63;6.57;;;;;;;;;;5067065;28;20025;-72
2021/08/11 14:34:11;;;;;;;15.05;7.22;;;;;;;;;;5068486;28;20028;-72